Time;durP1;ratioP1;P1;durP2;ratioP2;P2;SDS_P1;SDS_P2;PMS_P1;PMS_P2;Temp;Humidity;BMP_temperature;BMP_pressure;BME280_temperature;BME280_humidity;BME280_pressure;Samples;Min_cycle;Max_cycle;Signal;HPM_P1;HPM_P2
2022/12/29 00:01:37;;;;;;;30.17;16.87;;;1.70;99.90;;;;;;5035166;28;20463;-57
2022/12/29 00:04:03;;;;;;;42.43;20.40;;;1.70;99.90;;;;;;5046383;28;20822;-58
2022/12/29 00:06:29;;;;;;;31.20;17.50;;;1.70;99.90;;;;;;5047516;28;21015;-58
2022/12/29 00:08:55;;;;;;;33.10;17.90;;;1.80;99.90;;;;;;5045931;28;20448;-57
2022/12/29 00:11:25;;;;;;;31.47;17.30;;;1.70;99.90;;;;;;5041756;28;20422;-57
2022/12/29 00:16:37;;;;;;;27.87;16.03;;;1.80;99.90;;;;;;5040395;28;20428;-58
2022/12/29 00:19:04;;;;;;;30.07;16.33;;;1.80;99.90;;;;;;5038512;28;20481;-58
2022/12/29 00:35:39;;;;;;;11.93;6.50;;;1.90;99.90;;;;;;5038908;28;20468;-56
2022/12/29 00:46:20;;;;;;;10.97;4.77;;;2.30;99.90;;;;;;5029210;28;20972;-57
2022/12/29 00:51:30;;;;;;;7.33;5.13;;;2.50;99.90;;;;;;5034669;28;20697;-58
2022/12/29 00:53:55;;;;;;;7.20;4.73;;;2.60;99.90;;;;;;5037545;28;20470;-58
2022/12/29 00:56:21;;;;;;;6.10;4.30;;;2.60;99.90;;;;;;5041603;28;20171;-58
2022/12/29 00:58:46;;;;;;;6.50;4.00;;;2.70;99.90;;;;;;5043121;28;20197;-56
2022/12/29 01:01:12;;;;;;;4.97;4.07;;;2.70;99.90;;;;;;5029597;28;20180;-57
2022/12/29 01:03:38;;;;;;;7.00;4.30;;;2.80;99.90;;;;;;5045384;28;20178;-57
2022/12/29 01:06:07;;;;;;;4.50;3.53;;;2.80;99.90;;;;;;5044161;28;20179;-57
2022/12/29 01:08:33;;;;;;;6.63;3.60;;;2.90;99.90;;;;;;5045343;28;20265;-58
2022/12/29 01:11:05;;;;;;;4.30;3.40;;;2.90;99.90;;;;;;5043450;28;20538;-58
2022/12/29 01:13:30;;;;;;;4.23;3.33;;;2.90;99.90;;;;;;5023939;28;20196;-59
2022/12/29 01:15:56;;;;;;;5.53;3.70;;;3.00;99.90;;;;;;5037175;28;20473;-57
2022/12/29 01:18:23;;;;;;;8.40;3.37;;;3.00;99.90;;;;;;5038385;28;20190;-57
2022/12/29 01:20:48;;;;;;;3.63;2.73;;;3.00;99.90;;;;;;5042781;28;20220;-58
2022/12/29 01:23:14;;;;;;;4.97;3.53;;;3.00;99.90;;;;;;5037031;28;20909;-59
2022/12/29 01:25:40;;;;;;;4.70;3.00;;;3.10;99.90;;;;;;5041283;28;20163;-61
2022/12/29 01:28:08;;;;;;;5.27;3.53;;;3.10;99.90;;;;;;5024151;28;20466;-59
2022/12/29 01:30:34;;;;;;;5.47;3.50;;;3.20;99.90;;;;;;5043344;28;20250;-59
2022/12/29 01:33:00;;;;;;;5.53;4.00;;;3.20;99.90;;;;;;5038816;28;20418;-59
2022/12/29 01:35:25;;;;;;;5.27;3.53;;;3.20;99.90;;;;;;5042842;28;20488;-59
2022/12/29 01:37:51;;;;;;;4.20;3.60;;;3.30;99.90;;;;;;5044573;28;20255;-58
2022/12/29 01:40:17;;;;;;;7.70;3.30;;;3.30;99.90;;;;;;5038280;28;20260;-58
2022/12/29 01:42:42;;;;;;;5.80;3.27;;;3.40;99.90;;;;;;5041757;28;20489;-59
2022/12/29 01:45:09;;;;;;;6.60;3.03;;;3.40;99.90;;;;;;5034863;28;20633;-58
2022/12/29 01:47:57;;;;;;;3.50;2.87;;;3.50;99.90;;;;;;5037551;28;20218;-58
2022/12/29 01:50:29;;;;;;;3.77;3.10;;;3.60;99.90;;;;;;5036400;28;21123;-58
2022/12/29 01:53:28;;;;;;;3.47;3.10;;;3.70;99.90;;;;;;5047584;28;20440;-59
2022/12/29 01:55:57;;;;;;;5.73;3.67;;;3.80;99.90;;;;;;5039339;28;20433;-58
2022/12/29 01:58:27;;;;;;;4.07;2.60;;;3.90;99.90;;;;;;5037512;28;20483;-58
2022/12/29 02:00:53;;;;;;;4.30;2.60;;;4.00;99.90;;;;;;5035005;28;20529;-58
2022/12/29 02:03:20;;;;;;;5.67;3.03;;;4.10;99.90;;;;;;5034470;28;20837;-58
2022/12/29 02:05:56;;;;;;;2.90;2.70;;;4.20;99.90;;;;;;5035689;28;20201;-59
2022/12/29 02:08:25;;;;;;;3.20;2.70;;;4.20;99.90;;;;;;5029953;28;20477;-58
2022/12/29 02:10:51;;;;;;;4.07;2.60;;;4.30;99.90;;;;;;5024251;28;20519;-58
2022/12/29 02:13:17;;;;;;;3.97;2.80;;;4.30;99.90;;;;;;5040758;28;20426;-59
2022/12/29 02:15:48;;;;;;;3.50;2.90;;;4.40;99.90;;;;;;5041596;28;20249;-58
2022/12/29 02:18:16;;;;;;;5.33;2.50;;;4.40;99.90;;;;;;5043397;28;20507;-58
2022/12/29 02:20:45;;;;;;;5.03;2.80;;;4.40;99.90;;;;;;5033912;28;21035;-58
2022/12/29 02:23:29;;;;;;;3.40;2.67;;;4.40;99.90;;;;;;5045958;28;20433;-58
2022/12/29 02:26:28;;;;;;;2.70;2.50;;;4.50;99.90;;;;;;5041020;28;20455;-58
2022/12/29 02:29:04;;;;;;;14.23;3.60;;;4.50;99.90;;;;;;5032583;28;20456;-58
2022/12/29 02:32:15;;;;;;;4.30;2.70;;;4.50;99.90;;;;;;5037074;28;20424;-58
2022/12/29 02:34:57;;;;;;;3.93;2.93;;;4.60;99.90;;;;;;4943250;28;20464;-59
2022/12/29 02:37:28;;;;;;;2.50;2.20;;;4.60;99.90;;;;;;5022992;28;20445;-60
2022/12/29 02:40:21;;;;;;;2.90;2.37;;;4.70;99.90;;;;;;5041297;28;20460;-60
2022/12/29 02:42:49;;;;;;;4.57;3.17;;;4.70;99.90;;;;;;5037871;28;20478;-59
2022/12/29 02:45:36;;;;;;;5.53;3.23;;;4.70;99.90;;;;;;5046191;28;21095;-57
2022/12/29 02:48:31;;;;;;;4.47;2.80;;;4.80;99.90;;;;;;5044217;28;20537;-57
2022/12/29 02:51:07;;;;;;;4.30;2.50;;;4.80;99.90;;;;;;5050771;28;20511;-58
2022/12/29 02:56:20;;;;;;;2.90;2.50;;;4.80;99.90;;;;;;5040959;28;21295;-58
2022/12/29 02:58:46;;;;;;;3.13;2.23;;;4.80;99.90;;;;;;5038517;28;20496;-58
2022/12/29 03:02:16;;;;;;;6.50;2.50;;;4.80;99.90;;;;;;5024992;28;20426;-58
2022/12/29 03:04:44;;;;;;;3.77;2.77;;;4.90;99.90;;;;;;5040027;28;20175;-58
2022/12/29 03:07:35;;;;;;;2.67;2.27;;;4.90;99.90;;;;;;5040268;28;20878;-58
2022/12/29 03:10:18;;;;;;;2.97;2.20;;;5.00;99.90;;;;;;5038027;28;20978;-57
2022/12/29 03:16:05;;;;;;;3.97;2.10;;;5.00;99.90;;;;;;5032651;28;20515;-58
2022/12/29 03:18:56;;;;;;;22.33;11.03;;;5.10;99.90;;;;;;5046310;28;20480;-58
2022/12/29 03:24:30;;;;;;;3.97;2.57;;;5.10;99.90;;;;;;5041058;28;20533;-58
2022/12/29 03:27:02;;;;;;;5.73;2.27;;;5.20;99.90;;;;;;5041509;28;20511;-58
2022/12/29 03:29:30;;;;;;;2.23;2.03;;;5.30;99.90;;;;;;5037849;28;20442;-58
2022/12/29 03:31:58;;;;;;;3.40;2.30;;;5.30;99.90;;;;;;5018186;28;20433;-58
2022/12/29 03:34:25;;;;;;;2.37;2.17;;;5.30;99.90;;;;;;5038426;28;20462;-58
2022/12/29 03:37:02;;;;;;;3.10;2.00;;;5.40;99.90;;;;;;5046428;28;20437;-58
2022/12/29 03:39:29;;;;;;;3.00;2.37;;;5.40;99.90;;;;;;5046248;28;20567;-60
2022/12/29 03:41:59;;;;;;;4.57;2.20;;;5.50;99.90;;;;;;5039774;28;20966;-59
2022/12/29 03:44:42;;;;;;;6.10;2.40;;;5.50;99.90;;;;;;5023370;28;20198;-59
2022/12/29 03:47:10;;;;;;;3.67;2.13;;;5.50;99.90;;;;;;5044486;28;20506;-57
2022/12/29 03:49:35;;;;;;;2.10;1.90;;;5.60;99.90;;;;;;5046890;28;20593;-57
2022/12/29 03:52:02;;;;;;;3.40;2.30;;;5.60;99.90;;;;;;5044993;28;20892;-57
2022/12/29 03:54:27;;;;;;;4.20;2.20;;;5.60;99.90;;;;;;5045450;28;20198;-57
2022/12/29 03:56:53;;;;;;;3.40;2.40;;;5.60;99.90;;;;;;5040396;28;20751;-58
2022/12/29 03:59:18;;;;;;;4.63;2.23;;;5.60;99.90;;;;;;5032192;28;20199;-59
2022/12/29 04:01:44;;;;;;;2.57;2.37;;;5.60;99.90;;;;;;5035291;28;20205;-59
2022/12/29 04:04:10;;;;;;;4.17;2.77;;;5.60;99.90;;;;;;5042350;28;20184;-58
2022/12/29 04:06:35;;;;;;;9.80;2.10;;;5.60;99.90;;;;;;5045066;28;20175;-59
2022/12/29 04:09:01;;;;;;;6.00;2.70;;;5.60;99.90;;;;;;5035950;28;20592;-58
2022/12/29 04:11:26;;;;;;;3.13;2.37;;;5.50;99.90;;;;;;5043105;28;20190;-58
2022/12/29 04:13:52;;;;;;;3.00;2.50;;;5.60;99.90;;;;;;5047107;28;20285;-58
2022/12/29 04:16:18;;;;;;;3.77;2.77;;;5.50;99.90;;;;;;5039433;28;20206;-58
2022/12/29 04:18:43;;;;;;;2.40;2.20;;;5.50;99.90;;;;;;5040223;28;20727;-58
2022/12/29 04:21:09;;;;;;;3.93;2.53;;;5.50;99.90;;;;;;5045645;28;20225;-58
2022/12/29 04:23:37;;;;;;;4.90;2.47;;;5.40;99.90;;;;;;5043498;28;20535;-58
2022/12/29 04:26:04;;;;;;;4.47;2.30;;;5.40;99.90;;;;;;5039887;28;20259;-58
2022/12/29 04:28:30;;;;;;;5.27;2.70;;;5.40;99.90;;;;;;5045373;28;20449;-56
2022/12/29 04:30:55;;;;;;;5.23;2.40;;;5.40;99.90;;;;;;5043105;28;20468;-58
2022/12/29 04:33:21;;;;;;;3.30;2.40;;;5.40;99.90;;;;;;5043051;28;20465;-58
2022/12/29 04:35:47;;;;;;;6.93;2.10;;;5.40;99.90;;;;;;5038787;28;20279;-58
2022/12/29 04:38:13;;;;;;;4.00;2.43;;;5.40;99.90;;;;;;5037411;28;20988;-58
2022/12/29 04:40:41;;;;;;;7.87;2.43;;;5.30;99.90;;;;;;5039614;28;20182;-58
2022/12/29 04:43:07;;;;;;;7.43;2.20;;;5.30;99.90;;;;;;5040635;28;20944;-58
2022/12/29 04:45:32;;;;;;;3.83;2.97;;;5.30;99.90;;;;;;5041410;28;20483;-58
2022/12/29 04:47:58;;;;;;;3.70;2.37;;;5.30;99.90;;;;;;5022740;28;20191;-59
2022/12/29 04:50:23;;;;;;;2.57;2.37;;;5.30;99.90;;;;;;5020993;28;20232;-59
2022/12/29 04:52:49;;;;;;;2.57;2.10;;;5.30;99.90;;;;;;5041823;28;20551;-58
2022/12/29 04:55:15;;;;;;;4.47;2.53;;;5.30;99.90;;;;;;5042952;28;20571;-58
2022/12/29 04:57:40;;;;;;;7.63;2.80;;;5.30;99.90;;;;;;5043493;28;20178;-57
2022/12/29 05:00:08;;;;;;;6.67;2.77;;;5.30;99.90;;;;;;5038654;28;20175;-59
2022/12/29 05:02:35;;;;;;;4.03;2.93;;;5.30;99.90;;;;;;5039225;28;20191;-59
2022/12/29 05:05:00;;;;;;;5.97;2.73;;;5.30;99.90;;;;;;5040041;28;20430;-59
2022/12/29 05:07:26;;;;;;;2.67;2.30;;;5.30;99.90;;;;;;5039103;28;20440;-59
2022/12/29 05:09:51;;;;;;;4.30;2.20;;;5.30;99.90;;;;;;5041448;28;20688;-60
2022/12/29 05:12:17;;;;;;;2.43;2.23;;;5.30;99.90;;;;;;5046335;28;20685;-58
2022/12/29 05:14:43;;;;;;;2.77;2.47;;;5.30;99.90;;;;;;5051090;28;20198;-58
2022/12/29 05:17:08;;;;;;;5.20;2.90;;;5.30;99.90;;;;;;5044824;28;20171;-58
2022/12/29 05:19:34;;;;;;;3.00;2.50;;;5.40;99.90;;;;;;5034599;28;20208;-58
2022/12/29 05:21:59;;;;;;;3.90;2.10;;;5.30;99.90;;;;;;5044933;28;20175;-58
2022/12/29 05:24:25;;;;;;;4.17;2.60;;;5.30;99.90;;;;;;5033554;28;20175;-59
2022/12/29 05:26:51;;;;;;;3.20;2.90;;;5.30;99.90;;;;;;5028296;28;20187;-59
2022/12/29 05:29:16;;;;;;;3.83;2.30;;;5.30;99.90;;;;;;5047619;28;20206;-58
2022/12/29 05:31:42;;;;;;;4.03;2.20;;;5.30;99.90;;;;;;5047772;28;20181;-58
2022/12/29 05:34:12;;;;;;;9.13;2.77;;;5.20;99.90;;;;;;5041388;28;20192;-58
2022/12/29 05:36:37;;;;;;;4.73;2.50;;;5.20;99.90;;;;;;5025378;28;20306;-57
2022/12/29 05:39:03;;;;;;;3.40;2.57;;;5.20;99.90;;;;;;5040232;28;20563;-59
2022/12/29 05:41:29;;;;;;;4.00;2.70;;;5.10;99.90;;;;;;5037123;28;20171;-58
2022/12/29 05:43:54;;;;;;;5.87;3.20;;;5.10;99.90;;;;;;5048671;28;21843;-58
2022/12/29 05:46:20;;;;;;;3.80;2.87;;;5.00;99.90;;;;;;5044063;28;20212;-59
2022/12/29 05:48:46;;;;;;;3.73;2.60;;;5.00;99.90;;;;;;5038774;28;20211;-58
2022/12/29 05:51:11;;;;;;;2.90;2.53;;;5.00;99.90;;;;;;5039450;28;20183;-59
2022/12/29 05:53:37;;;;;;;7.20;2.70;;;4.90;99.90;;;;;;5041354;28;20237;-58
2022/12/29 05:56:03;;;;;;;4.53;2.90;;;4.90;99.90;;;;;;5042845;28;20182;-58
2022/12/29 05:58:28;;;;;;;3.20;2.50;;;4.80;99.90;;;;;;5036803;28;20191;-58
2022/12/29 06:00:54;;;;;;;5.13;2.97;;;4.80;99.90;;;;;;5040268;28;20244;-59
2022/12/29 06:03:20;;;;;;;4.20;2.93;;;4.80;99.90;;;;;;5039387;28;21444;-58
2022/12/29 06:05:46;;;;;;;6.03;2.80;;;4.80;99.90;;;;;;5037185;28;20175;-59
2022/12/29 06:08:12;;;;;;;3.30;2.50;;;4.80;99.90;;;;;;5048236;28;20199;-58
2022/12/29 06:10:37;;;;;;;3.30;2.40;;;4.80;99.90;;;;;;5045910;28;20426;-58
2022/12/29 06:13:05;;;;;;;5.70;2.80;;;4.70;99.90;;;;;;5038887;28;20436;-59
2022/12/29 06:15:31;;;;;;;3.97;2.80;;;4.70;99.90;;;;;;5040212;28;20217;-59
2022/12/29 06:17:57;;;;;;;3.93;2.70;;;4.70;99.90;;;;;;5041223;28;20973;-58
2022/12/29 06:20:22;;;;;;;3.30;2.50;;;4.60;99.90;;;;;;5030902;28;20438;-58
2022/12/29 06:22:49;;;;;;;5.30;3.07;;;4.60;99.90;;;;;;5042903;28;20218;-59
2022/12/29 06:25:15;;;;;;;3.10;2.70;;;4.60;99.90;;;;;;5046892;28;20182;-59
2022/12/29 06:27:41;;;;;;;6.73;3.13;;;4.60;99.90;;;;;;5038147;28;20440;-56
2022/12/29 06:30:08;;;;;;;8.53;3.03;;;4.50;99.90;;;;;;5035208;28;20436;-59
2022/12/29 06:32:35;;;;;;;5.27;3.30;;;4.50;99.90;;;;;;5035573;28;20554;-58
2022/12/29 06:35:01;;;;;;;6.33;3.93;;;4.50;99.90;;;;;;5033506;28;20461;-59
2022/12/29 06:37:26;;;;;;;8.03;4.07;;;4.50;99.90;;;;;;5040484;28;21200;-58
2022/12/29 06:39:52;;;;;;;5.60;4.20;;;4.50;99.90;;;;;;5038338;28;20445;-58
2022/12/29 06:42:17;;;;;;;4.00;3.07;;;4.60;99.90;;;;;;5042643;28;20731;-58
2022/12/29 06:44:43;;;;;;;5.77;3.40;;;4.60;99.90;;;;;;5036044;28;20173;-58
2022/12/29 06:47:09;;;;;;;6.33;3.17;;;4.70;99.90;;;;;;5039657;28;20637;-58
2022/12/29 06:49:34;;;;;;;4.63;2.60;;;4.80;99.90;;;;;;5041333;28;20207;-58
2022/12/29 06:52:03;;;;;;;6.43;3.10;;;4.90;99.90;;;;;;5039604;28;20187;-58
2022/12/29 06:54:28;;;;;;;4.43;2.90;;;5.00;99.90;;;;;;5039827;28;20231;-58
2022/12/29 06:56:54;;;;;;;4.03;2.87;;;5.10;99.90;;;;;;5038311;28;21011;-59
2022/12/29 06:59:20;;;;;;;9.67;3.87;;;5.20;99.90;;;;;;5035731;28;20187;-58
2022/12/29 07:01:45;;;;;;;4.90;2.80;;;5.20;99.90;;;;;;5016817;28;20201;-58
2022/12/29 07:04:11;;;;;;;6.10;3.60;;;5.20;99.90;;;;;;5042577;28;20176;-58
2022/12/29 07:06:36;;;;;;;4.97;3.83;;;5.30;99.90;;;;;;5039486;28;20214;-57
2022/12/29 07:09:02;;;;;;;4.80;2.90;;;5.30;99.90;;;;;;5039635;28;20191;-58
2022/12/29 07:11:27;;;;;;;5.17;3.10;;;5.30;99.90;;;;;;5042686;28;20171;-58
2022/12/29 07:13:53;;;;;;;4.73;3.40;;;5.30;99.90;;;;;;5032537;28;20218;-58
2022/12/29 07:16:19;;;;;;;3.37;2.97;;;5.30;99.90;;;;;;5032245;28;20179;-58
2022/12/29 07:18:44;;;;;;;5.17;2.97;;;5.40;99.90;;;;;;5037031;28;20818;-57
2022/12/29 07:21:11;;;;;;;3.73;2.93;;;5.40;99.90;;;;;;5041155;28;20172;-58
2022/12/29 07:23:37;;;;;;;4.07;2.73;;;5.40;99.90;;;;;;5045928;28;20187;-57
2022/12/29 07:26:05;;;;;;;5.03;3.10;;;5.40;99.90;;;;;;5037321;28;20975;-57
2022/12/29 07:28:32;;;;;;;4.43;2.97;;;5.40;99.90;;;;;;5052296;28;20215;-57
2022/12/29 07:30:58;;;;;;;4.80;3.13;;;5.40;99.90;;;;;;5047494;28;20418;-57
2022/12/29 07:33:24;;;;;;;3.97;3.00;;;5.30;99.90;;;;;;5028352;28;20431;-58
2022/12/29 07:35:50;;;;;;;9.27;4.20;;;5.30;99.90;;;;;;5040064;28;20433;-58
2022/12/29 07:38:16;;;;;;;10.60;5.40;;;5.20;99.90;;;;;;5050234;28;20290;-57
2022/12/29 07:40:42;;;;;;;9.17;4.53;;;5.00;99.90;;;;;;5047380;28;21167;-58
2022/12/29 07:43:08;;;;;;;10.53;6.20;;;5.00;99.90;;;;;;5031135;28;20644;-61
2022/12/29 07:45:33;;;;;;;9.83;5.20;;;4.90;99.90;;;;;;5037460;28;20430;-58
2022/12/29 07:47:59;;;;;;;13.07;5.27;;;4.90;99.90;;;;;;5031973;28;20189;-59
2022/12/29 07:50:25;;;;;;;5.87;3.93;;;4.90;99.90;;;;;;5024012;28;20167;-60
2022/12/29 07:52:51;;;;;;;12.10;5.40;;;4.90;99.90;;;;;;5037764;28;20783;-60
2022/12/29 07:55:16;;;;;;;9.10;4.90;;;4.90;99.90;;;;;;5014865;28;21280;-59
2022/12/29 07:57:42;;;;;;;7.33;4.57;;;4.90;99.90;;;;;;5032542;28;20292;-59
2022/12/29 08:00:09;;;;;;;10.30;4.73;;;4.90;99.90;;;;;;5038857;28;20436;-59
2022/12/29 08:02:35;;;;;;;9.00;5.07;;;4.90;99.90;;;;;;5043044;28;20426;-57
2022/12/29 08:05:01;;;;;;;8.90;5.20;;;4.90;99.90;;;;;;5036863;28;20495;-58
2022/12/29 08:07:27;;;;;;;7.60;5.33;;;5.00;99.90;;;;;;5012447;28;20433;-58
2022/12/29 08:09:53;;;;;;;10.17;4.93;;;5.00;99.90;;;;;;5038013;28;20202;-57
2022/12/29 08:12:18;;;;;;;9.00;5.10;;;5.10;99.90;;;;;;5040705;28;20206;-58
2022/12/29 08:14:44;;;;;;;9.73;5.23;;;5.20;99.90;;;;;;5039842;28;20659;-58
2022/12/29 08:17:10;;;;;;;10.23;5.53;;;5.30;99.90;;;;;;5037752;28;20183;-59
2022/12/29 08:19:36;;;;;;;10.03;4.80;;;5.40;99.90;;;;;;5038738;28;20238;-60
2022/12/29 08:22:02;;;;;;;11.00;4.60;;;5.50;99.90;;;;;;5039116;28;20682;-59
2022/12/29 08:24:27;;;;;;;6.60;5.17;;;5.60;99.90;;;;;;5039457;28;20434;-59
2022/12/29 08:26:53;;;;;;;9.60;5.03;;;5.70;99.90;;;;;;5040416;28;20421;-59
2022/12/29 08:29:21;;;;;;;9.50;4.93;;;5.80;99.90;;;;;;5041680;28;20215;-60
2022/12/29 08:31:47;;;;;;;8.33;4.40;;;5.80;99.90;;;;;;5041773;28;20176;-59
2022/12/29 08:34:12;;;;;;;10.93;5.40;;;5.90;99.90;;;;;;5034499;28;20460;-59
2022/12/29 08:36:38;;;;;;;7.60;5.00;;;6.00;99.90;;;;;;5045571;28;20167;-59
2022/12/29 08:39:04;;;;;;;8.27;5.80;;;6.00;99.90;;;;;;5038881;28;20210;-59
2022/12/29 08:41:29;;;;;;;9.73;5.70;;;6.10;99.90;;;;;;5047430;28;20259;-58
2022/12/29 08:43:55;;;;;;;6.67;5.07;;;6.10;99.90;;;;;;5041510;28;20190;-58
2022/12/29 08:46:21;;;;;;;7.90;4.67;;;6.10;99.90;;;;;;5042220;28;20652;-58
2022/12/29 08:48:46;;;;;;;8.73;4.67;;;6.20;99.90;;;;;;5042085;28;20571;-60
2022/12/29 08:51:12;;;;;;;9.37;5.60;;;6.20;99.90;;;;;;5038578;28;20206;-58
2022/12/29 08:53:38;;;;;;;7.60;5.07;;;6.30;99.90;;;;;;5031411;28;20274;-55
2022/12/29 08:56:04;;;;;;;13.77;5.53;;;6.30;99.90;;;;;;5024350;28;20481;-60
2022/12/29 08:58:30;;;;;;;10.07;6.03;;;6.30;99.90;;;;;;5034422;28;20223;-58
2022/12/29 09:00:57;;;;;;;12.53;5.70;;;6.30;99.90;;;;;;5032619;28;20532;-61
2022/12/29 09:03:24;;;;;;;12.73;5.40;;;6.40;99.90;;;;;;5020524;28;20178;-60
2022/12/29 09:05:54;;;;;;;7.03;5.00;;;6.40;99.90;;;;;;5033783;28;20542;-60
2022/12/29 09:08:20;;;;;;;8.57;5.00;;;6.50;99.90;;;;;;5038842;28;20549;-59
2022/12/29 09:10:46;;;;;;;8.13;5.47;;;6.50;99.90;;;;;;5043000;28;20426;-59
2022/12/29 09:13:14;;;;;;;9.27;5.67;;;6.50;99.90;;;;;;5024046;28;20448;-59
2022/12/29 09:15:40;;;;;;;7.77;5.57;;;6.60;99.90;;;;;;5035496;28;20461;-59
2022/12/29 09:18:07;;;;;;;14.27;6.03;;;6.60;99.90;;;;;;5029071;28;20548;-60
2022/12/29 09:20:34;;;;;;;7.93;4.60;;;6.60;99.90;;;;;;5051676;28;20418;-60
2022/12/29 09:23:00;;;;;;;11.87;5.07;;;6.60;99.90;;;;;;5034284;28;20537;-60
2022/12/29 09:25:26;;;;;;;17.33;5.47;;;6.60;99.90;;;;;;5035527;28;20433;-58
2022/12/29 09:27:54;;;;;;;11.63;6.07;;;6.70;99.90;;;;;;5035799;28;21010;-61
2022/12/29 09:30:22;;;;;;;10.57;5.33;;;6.70;99.90;;;;;;5019179;28;20230;-59
2022/12/29 09:32:48;;;;;;;8.60;4.97;;;6.70;99.90;;;;;;5042676;28;20514;-59
2022/12/29 09:35:15;;;;;;;10.50;5.73;;;6.70;99.90;;;;;;5040414;28;20477;-60
2022/12/29 09:37:41;;;;;;;11.00;6.57;;;6.70;99.90;;;;;;5041943;28;21268;-59
2022/12/29 09:40:13;;;;;;;12.17;5.70;;;6.70;99.90;;;;;;5022551;28;20437;-59
2022/12/29 09:42:55;;;;;;;9.70;6.20;;;6.80;99.90;;;;;;5034572;28;20441;-59
2022/12/29 09:45:32;;;;;;;11.23;5.10;;;6.80;99.90;;;;;;5041966;28;20498;-60
2022/12/29 09:47:58;;;;;;;8.17;4.60;;;6.90;99.90;;;;;;5034943;28;20484;-60
2022/12/29 09:50:32;;;;;;;9.37;6.07;;;6.90;99.90;;;;;;5023025;28;20465;-59
2022/12/29 09:53:23;;;;;;;15.17;4.77;;;7.00;99.90;;;;;;5039684;28;20443;-60
2022/12/29 09:55:57;;;;;;;9.70;4.40;;;7.00;99.90;;;;;;5035154;28;20457;-59
2022/12/29 09:58:27;;;;;;;9.50;4.67;;;7.10;99.90;;;;;;5019201;28;20535;-59
2022/12/29 10:01:00;;;;;;;9.27;4.80;;;7.20;99.90;;;;;;5044591;28;20502;-60
2022/12/29 10:03:36;;;;;;;8.13;5.37;;;7.30;99.90;;;;;;5032055;28;20434;-59
2022/12/29 10:06:32;;;;;;;8.63;4.60;;;7.30;99.90;;;;;;5037210;28;20461;-56
2022/12/29 10:09:12;;;;;;;14.40;5.10;;;7.40;99.90;;;;;;5002218;28;20454;-59
2022/12/29 10:12:19;;;;;;;6.10;4.10;;;7.50;99.90;;;;;;5036959;28;20479;-59
2022/12/29 10:15:18;;;;;;;7.87;5.20;;;7.60;99.90;;;;;;5015568;28;20456;-58
2022/12/29 10:18:01;;;;;;;13.23;6.20;;;7.60;99.90;;;;;;5031199;28;20453;-59
2022/12/29 10:20:36;;;;;;;10.03;5.50;;;7.70;99.90;;;;;;5036138;28;20441;-59
2022/12/29 10:23:27;;;;;;;14.07;6.57;;;7.70;99.90;;;;;;5029874;28;20426;-59
2022/12/29 10:25:57;;;;;;;15.43;7.80;;;7.70;99.90;;;;;;5033278;28;20464;-59
2022/12/29 10:28:42;;;;;;;19.13;11.03;;;7.70;99.90;;;;;;5008676;28;20460;-60
2022/12/29 10:31:16;;;;;;;10.00;6.33;;;7.70;99.90;;;;;;5039857;28;20785;-57
2022/12/29 10:33:42;;;;;;;9.43;5.43;;;7.70;99.90;;;;;;5024578;28;20433;-59
2022/12/29 10:36:26;;;;;;;10.37;3.63;;;7.80;99.90;;;;;;5040849;28;20417;-61
2022/12/29 10:39:10;;;;;;;5.90;4.10;;;7.80;99.90;;;;;;5033206;28;20457;-60
2022/12/29 10:41:43;;;;;;;4.80;3.60;;;7.80;99.90;;;;;;5030682;28;20968;-60
2022/12/29 10:44:14;;;;;;;6.23;3.33;;;7.90;99.90;;;;;;5032648;28;20425;-59
2022/12/29 10:46:40;;;;;;;4.77;3.10;;;7.90;99.90;;;;;;5024316;28;20430;-60
2022/12/29 10:49:12;;;;;;;5.87;3.67;;;7.90;99.90;;;;;;5027640;28;20962;-60
2022/12/29 10:51:42;;;;;;;13.30;4.57;;;8.00;99.90;;;;;;5033371;28;20464;-59
2022/12/29 10:54:27;;;;;;;8.97;4.00;;;8.00;99.90;;;;;;5031663;28;20518;-61
2022/12/29 10:56:59;;;;;;;4.80;3.00;;;8.10;99.90;;;;;;5028452;28;20478;-61
2022/12/29 10:59:30;;;;;;;8.67;3.30;;;8.10;99.90;;;;;;5037220;28;20483;-60
2022/12/29 11:02:10;;;;;;;5.00;3.30;;;8.20;99.90;;;;;;5039681;28;20430;-60
2022/12/29 11:05:02;;;;;;;10.10;3.50;;;8.20;99.90;;;;;;5037358;28;20436;-59
2022/12/29 11:07:30;;;;;;;3.90;2.50;;;8.30;99.90;;;;;;5004403;28;20554;-59
2022/12/29 11:10:15;;;;;;;11.10;3.33;;;8.40;99.90;;;;;;5036678;28;20607;-61
2022/12/29 11:12:40;;;;;;;5.60;3.33;;;8.40;99.90;;;;;;5031890;28;20447;-59
2022/12/29 11:15:07;;;;;;;5.50;3.23;;;8.40;99.90;;;;;;5042617;28;20985;-61
2022/12/29 11:17:47;;;;;;;3.10;2.30;;;8.50;99.90;;;;;;5023114;28;20176;-59
2022/12/29 11:20:27;;;;;;;5.83;2.73;;;8.50;99.90;;;;;;5042532;28;20478;-59
2022/12/29 11:22:52;;;;;;;3.97;2.50;;;8.60;99.90;;;;;;5041253;28;20422;-59
2022/12/29 11:25:18;;;;;;;5.37;3.00;;;8.70;99.90;;;;;;5040123;28;20433;-60
2022/12/29 11:28:00;;;;;;;3.70;2.30;;;8.70;99.90;;;;;;5031201;28;20183;-59
2022/12/29 11:30:29;;;;;;;5.30;2.97;;;8.80;99.90;;;;;;5043095;28;20240;-59
2022/12/29 11:32:55;;;;;;;7.53;2.20;;;8.80;99.90;;;;;;5026191;28;20450;-59
2022/12/29 11:35:38;;;;;;;8.47;3.17;;;8.80;99.90;;;;;;5029540;28;20499;-59
2022/12/29 11:38:05;;;;;;;4.10;2.60;;;8.90;99.90;;;;;;5019730;28;20454;-62
2022/12/29 11:40:31;;;;;;;7.27;2.70;;;8.90;99.90;;;;;;5023971;28;20427;-59
2022/12/29 11:43:03;;;;;;;4.13;2.73;;;8.90;99.90;;;;;;5039564;28;20426;-59
2022/12/29 11:45:34;;;;;;;4.40;3.93;;;8.90;99.90;;;;;;5018793;28;21128;-59
2022/12/29 11:48:06;;;;;;;8.13;3.57;;;9.00;99.90;;;;;;5030520;28;20454;-60
2022/12/29 11:50:35;;;;;;;6.80;3.30;;;9.10;99.90;;;;;;5033415;28;20427;-60
2022/12/29 11:53:06;;;;;;;6.60;3.40;;;9.20;99.90;;;;;;5033849;28;20524;-62
2022/12/29 11:55:32;;;;;;;5.33;2.67;;;9.20;99.90;;;;;;5026050;28;20617;-61
2022/12/29 11:58:01;;;;;;;9.63;3.23;;;9.30;99.90;;;;;;5028949;28;20961;-58
2022/12/29 12:00:30;;;;;;;5.03;3.47;;;9.30;99.90;;;;;;5014799;28;20190;-60
2022/12/29 12:03:08;;;;;;;5.10;2.87;;;9.40;99.90;;;;;;5033470;28;20450;-61
2022/12/29 12:05:44;;;;;;;3.50;2.53;;;9.40;99.90;;;;;;5016115;28;20968;-60
2022/12/29 12:08:32;;;;;;;7.80;2.70;;;9.40;99.90;;;;;;5034851;28;20450;-60
2022/12/29 12:11:12;;;;;;;4.57;2.83;;;9.40;99.90;;;;;;5036840;28;20787;-61
2022/12/29 12:13:58;;;;;;;3.50;2.57;;;9.40;99.90;;;;;;5032772;28;20437;-60
2022/12/29 12:17:06;;;;;;;4.60;2.97;;;9.50;99.90;;;;;;5031145;28;20433;-59
2022/12/29 12:19:53;;;;;;;8.23;2.37;;;9.40;99.90;;;;;;4930919;28;21078;-60
2022/12/29 12:22:46;;;;;;;6.00;3.23;;;9.40;99.90;;;;;;4935183;28;20536;-57
2022/12/29 12:25:20;;;;;;;4.47;2.70;;;9.30;99.90;;;;;;5013431;28;20454;-59
2022/12/29 12:28:10;;;;;;;3.60;2.20;;;9.30;99.90;;;;;;5033934;28;20495;-59
2022/12/29 12:30:45;;;;;;;3.87;2.50;;;9.30;99.90;;;;;;5036535;28;20533;-60
2022/12/29 12:33:53;;;;;;;3.03;2.33;;;9.30;99.90;;;;;;5035267;28;20445;-59
2022/12/29 12:36:19;;;;;;;6.23;2.97;;;9.30;99.90;;;;;;4981433;28;20435;-60
2022/12/29 12:38:50;;;;;;;6.30;3.20;;;9.20;99.90;;;;;;4979581;28;20498;-60
2022/12/29 12:41:25;;;;;;;2.73;2.53;;;9.20;99.90;;;;;;4999279;28;20277;-58
2022/12/29 12:43:56;;;;;;;3.10;2.03;;;9.20;99.90;;;;;;5028962;28;20913;-57
2022/12/29 12:46:49;;;;;;;4.20;2.50;;;9.20;99.90;;;;;;5030224;28;20423;-59
2022/12/29 12:49:34;;;;;;;2.60;2.20;;;9.20;99.90;;;;;;5030995;28;20536;-62
2022/12/29 12:52:18;;;;;;;2.30;2.10;;;9.20;99.90;;;;;;5032820;28;20441;-61
2022/12/29 12:55:11;;;;;;;4.27;1.60;;;9.30;99.90;;;;;;5029911;28;20453;-59
2022/12/29 12:58:07;;;;;;;3.30;1.83;;;9.30;99.90;;;;;;5017535;28;20462;-58
2022/12/29 13:00:51;;;;;;;3.27;2.07;;;9.30;99.90;;;;;;5034404;28;20428;-59
2022/12/29 13:03:29;;;;;;;2.77;2.43;;;9.40;99.90;;;;;;5037745;28;21268;-60
2022/12/29 13:06:14;;;;;;;3.23;2.33;;;9.30;99.90;;;;;;5032310;28;20516;-59
2022/12/29 13:08:45;;;;;;;2.40;2.07;;;9.40;99.90;;;;;;5015718;28;20449;-60
2022/12/29 13:11:51;;;;;;;4.97;2.40;;;9.40;99.90;;;;;;5035435;28;20898;-59
2022/12/29 13:14:22;;;;;;;3.60;2.40;;;9.40;99.90;;;;;;5029836;28;21324;-59
2022/12/29 13:16:56;;;;;;;5.67;4.90;;;9.40;99.90;;;;;;5029686;28;20422;-59
2022/12/29 13:19:55;;;;;;;5.20;3.47;;;9.40;99.90;;;;;;5026700;28;20449;-61
2022/12/29 13:22:48;;;;;;;3.60;2.30;;;9.50;99.90;;;;;;5002713;28;20986;-60
2022/12/29 13:25:41;;;;;;;4.60;3.23;;;9.50;99.90;;;;;;5034202;28;20974;-60
2022/12/29 13:28:19;;;;;;;14.93;4.23;;;9.50;99.90;;;;;;5036329;28;20449;-61
2022/12/29 13:31:00;;;;;;;4.40;3.07;;;9.50;99.90;;;;;;5025601;28;20429;-58
2022/12/29 13:34:00;;;;;;;6.50;3.50;;;9.50;99.90;;;;;;5022436;28;20434;-59
2022/12/29 13:36:39;;;;;;;7.30;2.73;;;9.60;99.90;;;;;;5030748;28;20434;-59
2022/12/29 13:39:15;;;;;;;4.93;2.80;;;9.60;99.90;;;;;;5025105;28;20457;-60
2022/12/29 13:41:48;;;;;;;4.53;2.70;;;9.60;99.90;;;;;;5032228;28;20516;-60
2022/12/29 13:44:40;;;;;;;3.77;2.47;;;9.60;99.90;;;;;;5030438;28;20433;-59
2022/12/29 13:47:28;;;;;;;6.30;2.90;;;9.60;99.90;;;;;;5025080;28;20947;-60
2022/12/29 13:49:58;;;;;;;6.10;3.20;;;9.60;99.90;;;;;;5021597;28;20442;-60
2022/12/29 13:52:45;;;;;;;5.40;2.30;;;9.60;99.90;;;;;;5022410;28;20501;-60
2022/12/29 13:55:32;;;;;;;3.00;2.70;;;9.60;99.90;;;;;;5028967;28;20554;-58